Time;durP1;ratioP1;P1;durP2;ratioP2;P2;SDS_P1;SDS_P2;PMS_P1;PMS_P2;Temp;Humidity;BMP_temperature;BMP_pressure;BME280_temperature;BME280_humidity;BME280_pressure;Samples;Min_cycle;Max_cycle;Signal;HPM_P1;HPM_P2
2024/03/02 00:00:11;;;;;;;3.38;1.30;;;9.30;99.90;;;;;;4968748;28;20034;-78
2024/03/02 00:02:44;;;;;;;5.05;1.30;;;9.30;99.90;;;;;;4951796;28;20035;-78
2024/03/02 00:05:28;;;;;;;2.25;1.40;;;9.20;99.90;;;;;;4941257;28;20023;-78
2024/03/02 00:08:00;;;;;;;3.20;1.40;;;9.30;99.90;;;;;;4969102;28;20027;-78
2024/03/02 00:10:31;;;;;;;2.15;1.30;;;9.30;99.90;;;;;;4968553;28;20484;-78
2024/03/02 00:12:57;;;;;;;3.15;1.35;;;9.30;99.90;;;;;;4951105;28;20458;-78
2024/03/02 00:15:47;;;;;;;3.80;1.20;;;9.30;99.90;;;;;;4980545;28;20015;-78
2024/03/02 00:18:18;;;;;;;2.15;1.17;;;9.30;99.90;;;;;;4969456;28;20015;-78
2024/03/02 00:20:44;;;;;;;2.63;1.20;;;9.30;99.90;;;;;;4972091;28;20046;-75
2024/03/02 00:23:12;;;;;;;1.45;0.98;;;9.30;99.90;;;;;;4972594;28;20058;-77
2024/03/02 00:25:40;;;;;;;2.28;1.10;;;9.30;99.90;;;;;;4969911;28;20026;-78
2024/03/02 00:28:13;;;;;;;5.00;1.58;;;9.30;99.90;;;;;;4976861;28;20031;-78
2024/03/02 00:30:58;;;;;;;2.80;1.50;;;9.30;99.90;;;;;;4943970;28;20069;-78
2024/03/02 00:33:30;;;;;;;3.53;1.20;;;9.30;99.90;;;;;;4973038;28;20051;-78
2024/03/02 00:35:56;;;;;;;2.03;1.17;;;9.30;99.90;;;;;;4969019;28;20035;-78
2024/03/02 00:38:22;;;;;;;1.98;1.30;;;9.30;99.90;;;;;;4951218;28;20039;-78
2024/03/02 00:40:48;;;;;;;3.28;1.38;;;9.30;99.90;;;;;;4968888;28;20361;-79
2024/03/02 00:43:42;;;;;;;3.55;1.35;;;9.30;99.90;;;;;;4968224;28;20025;-78
2024/03/02 00:46:07;;;;;;;2.97;1.40;;;9.30;99.90;;;;;;4968395;28;20031;-78
2024/03/02 00:48:36;;;;;;;2.17;1.00;;;9.30;99.90;;;;;;4968065;28;20450;-78
2024/03/02 00:51:04;;;;;;;3.70;1.05;;;9.30;99.90;;;;;;4967787;28;20078;-78
2024/03/02 00:53:31;;;;;;;2.00;1.30;;;9.30;99.90;;;;;;4950272;28;20031;-78
2024/03/02 00:55:57;;;;;;;3.63;1.20;;;9.30;99.90;;;;;;4966398;28;20030;-78
2024/03/02 00:58:22;;;;;;;3.15;1.20;;;9.30;99.90;;;;;;4969321;28;20613;-77
2024/03/02 01:00:48;;;;;;;3.22;1.10;;;9.30;99.90;;;;;;4967728;28;20038;-78
2024/03/02 01:03:13;;;;;;;2.78;1.45;;;9.30;99.90;;;;;;4969184;28;20015;-78
2024/03/02 01:05:43;;;;;;;3.90;1.10;;;9.30;99.90;;;;;;4967890;28;20436;-78
2024/03/02 01:08:09;;;;;;;3.38;1.10;;;9.30;99.90;;;;;;4970422;28;20070;-78
2024/03/02 01:10:35;;;;;;;2.38;1.17;;;9.30;99.90;;;;;;4949876;28;20011;-78
2024/03/02 01:13:01;;;;;;;4.07;1.40;;;9.30;99.90;;;;;;4968040;28;20022;-78
2024/03/02 01:15:26;;;;;;;2.63;1.05;;;9.30;99.90;;;;;;4967767;28;20023;-80
2024/03/02 01:17:52;;;;;;;4.15;1.50;;;9.30;99.90;;;;;;4966543;28;20030;-79
2024/03/02 01:20:18;;;;;;;1.77;1.20;;;9.30;99.90;;;;;;4963871;28;20026;-79
2024/03/02 01:22:43;;;;;;;4.15;1.27;;;9.20;99.90;;;;;;4968393;28;20022;-80
2024/03/02 01:25:09;;;;;;;3.45;1.20;;;9.20;99.90;;;;;;4967669;28;20480;-79
2024/03/02 01:27:35;;;;;;;5.50;1.10;;;9.20;99.90;;;;;;4968312;28;20472;-80
2024/03/02 01:30:00;;;;;;;1.55;0.82;;;9.30;99.90;;;;;;4966562;28;20023;-79
2024/03/02 01:32:26;;;;;;;6.53;1.35;;;9.30;99.90;;;;;;4979965;28;20027;-79
2024/03/02 01:34:52;;;;;;;5.15;0.90;;;9.30;99.90;;;;;;4949691;28;20046;-79
2024/03/02 01:37:18;;;;;;;1.00;0.60;;;9.30;99.90;;;;;;4966549;28;20322;-80
2024/03/02 01:39:43;;;;;;;1.58;0.55;;;9.30;99.90;;;;;;4967384;28;21078;-79
2024/03/02 01:42:10;;;;;;;0.98;0.50;;;9.30;99.90;;;;;;4969639;28;20074;-80
2024/03/02 01:44:36;;;;;;;1.52;0.50;;;9.30;99.90;;;;;;4967781;28;20098;-80
2024/03/02 01:47:02;;;;;;;1.17;0.60;;;9.30;99.90;;;;;;4967463;28;20026;-79
2024/03/02 01:49:28;;;;;;;1.95;0.50;;;9.40;99.90;;;;;;4967096;28;20439;-79
2024/03/02 01:51:54;;;;;;;0.68;0.40;;;9.30;99.90;;;;;;4967245;28;20031;-81
2024/03/02 01:54:19;;;;;;;0.50;0.40;;;9.30;99.90;;;;;;4966981;28;20027;-80
2024/03/02 01:56:45;;;;;;;0.82;0.30;;;9.30;99.90;;;;;;4967116;28;20031;-79
2024/03/02 01:59:12;;;;;;;0.88;0.25;;;9.30;99.90;;;;;;4966873;28;20117;-79
2024/03/02 02:01:38;;;;;;;0.10;0.10;;;9.20;99.90;;;;;;4950015;28;20492;-79
2024/03/02 02:04:06;;;;;;;0.63;0.35;;;9.20;99.90;;;;;;4967047;28;20023;-79
2024/03/02 02:06:32;;;;;;;0.90;0.50;;;9.10;99.90;;;;;;4979544;28;20019;-79
2024/03/02 02:08:57;;;;;;;0.57;0.30;;;9.10;99.90;;;;;;4971357;28;20031;-78
2024/03/02 02:11:24;;;;;;;0.10;0.10;;;9.10;99.90;;;;;;4967192;28;20042;-78
2024/03/02 02:13:49;;;;;;;0.85;0.63;;;9.10;99.90;;;;;;4966956;28;20027;-79
2024/03/02 02:16:15;;;;;;;1.33;0.30;;;9.00;99.90;;;;;;4966936;28;20109;-79
2024/03/02 02:18:41;;;;;;;0.32;0.30;;;9.00;99.90;;;;;;4966934;28;20642;-78
2024/03/02 02:21:08;;;;;;;0.98;0.30;;;9.00;99.90;;;;;;4966956;28;20034;-78
2024/03/02 02:23:34;;;;;;;0.60;0.20;;;8.90;99.90;;;;;;4949808;28;20050;-77
2024/03/02 02:25:59;;;;;;;0.43;0.20;;;8.90;99.90;;;;;;4966212;28;20057;-78
2024/03/02 02:28:25;;;;;;;0.40;0.20;;;8.90;99.90;;;;;;4966664;28;20034;-78
2024/03/02 02:30:51;;;;;;;0.50;0.30;;;8.90;99.90;;;;;;4966675;28;20027;-78
2024/03/02 02:33:16;;;;;;;0.50;0.40;;;8.90;99.90;;;;;;4966754;28;20074;-77
2024/03/02 02:35:42;;;;;;;0.35;0.28;;;8.90;99.90;;;;;;4966602;28;20034;-78
2024/03/02 02:38:07;;;;;;;0.47;0.28;;;8.90;99.90;;;;;;4966612;28;20031;-78
2024/03/02 02:40:33;;;;;;;0.50;0.30;;;8.90;99.90;;;;;;4966224;28;20011;-78
2024/03/02 02:42:59;;;;;;;0.30;0.22;;;8.90;99.90;;;;;;4966543;28;20026;-78
2024/03/02 02:45:25;;;;;;;1.20;0.45;;;8.90;99.90;;;;;;4966749;28;20110;-78
2024/03/02 02:47:50;;;;;;;0.20;0.20;;;8.90;99.90;;;;;;4968789;28;20019;-77
2024/03/02 02:50:16;;;;;;;0.77;0.43;;;8.90;99.90;;;;;;4969291;28;20038;-77
2024/03/02 02:52:42;;;;;;;0.57;0.30;;;8.90;99.90;;;;;;4970436;28;20062;-78
2024/03/02 02:55:13;;;;;;;1.02;0.30;;;8.90;99.90;;;;;;4963615;28;20539;-77
2024/03/02 02:57:41;;;;;;;0.50;0.20;;;8.90;99.90;;;;;;4970263;28;20034;-78
2024/03/02 03:00:14;;;;;;;1.05;0.60;;;8.80;99.90;;;;;;4969526;28;20109;-77
2024/03/02 03:02:41;;;;;;;1.50;0.30;;;8.80;99.90;;;;;;4970112;28;20039;-77
2024/03/02 03:05:08;;;;;;;0.43;0.15;;;8.70;99.90;;;;;;4955898;28;20023;-77
2024/03/02 03:07:34;;;;;;;0.52;0.20;;;8.70;99.90;;;;;;4976846;28;20057;-78
2024/03/02 03:10:01;;;;;;;1.58;0.50;;;8.70;99.90;;;;;;4969407;28;20026;-77
2024/03/02 03:12:26;;;;;;;0.88;0.50;;;8.70;99.90;;;;;;4969566;28;20946;-78
2024/03/02 03:14:52;;;;;;;0.40;0.20;;;8.70;99.90;;;;;;4969404;28;20085;-77
2024/03/02 03:17:18;;;;;;;2.30;0.40;;;8.70;99.90;;;;;;4970113;28;20162;-77
2024/03/02 03:19:43;;;;;;;1.65;0.50;;;8.70;99.90;;;;;;4969261;28;20085;-77
2024/03/02 03:22:09;;;;;;;3.50;0.20;;;8.70;99.90;;;;;;4969668;28;20054;-77
2024/03/02 03:24:35;;;;;;;0.75;0.30;;;8.60;99.90;;;;;;4969633;28;20035;-77
2024/03/02 03:27:00;;;;;;;0.20;0.20;;;8.60;99.90;;;;;;4969433;28;20021;-78
2024/03/02 03:29:26;;;;;;;0.30;0.25;;;8.60;99.90;;;;;;4951822;28;20035;-77
2024/03/02 03:31:52;;;;;;;1.55;0.15;;;8.60;99.90;;;;;;4969429;28;20062;-77
2024/03/02 03:34:17;;;;;;;0.32;0.32;;;8.60;99.90;;;;;;4968933;28;20062;-77
2024/03/02 03:36:43;;;;;;;2.03;0.40;;;8.60;99.90;;;;;;4951982;28;20023;-77
2024/03/02 03:39:09;;;;;;;1.92;0.38;;;8.60;99.90;;;;;;4968219;28;20023;-76
2024/03/02 03:41:34;;;;;;;2.80;0.35;;;8.60;99.90;;;;;;4969407;28;20388;-77
2024/03/02 03:44:00;;;;;;;0.25;0.20;;;8.50;99.90;;;;;;4968829;28;20062;-77
2024/03/02 03:46:26;;;;;;;0.98;0.20;;;8.50;99.90;;;;;;4969196;28;20037;-78
2024/03/02 03:48:51;;;;;;;0.60;0.20;;;8.50;99.90;;;;;;4969023;28;20037;-77
2024/03/02 03:51:17;;;;;;;1.05;0.20;;;8.50;99.90;;;;;;4968397;28;20579;-77
2024/03/02 03:53:42;;;;;;;0.22;0.22;;;8.40;99.90;;;;;;4978924;28;20034;-78
2024/03/02 03:56:08;;;;;;;1.70;0.38;;;8.40;99.90;;;;;;4969036;28;20023;-80
2024/03/02 03:58:34;;;;;;;0.38;0.30;;;8.40;99.90;;;;;;4980654;28;20069;-77
2024/03/02 04:00:59;;;;;;;0.35;0.30;;;8.40;99.90;;;;;;4967927;28;20495;-78
2024/03/02 04:03:25;;;;;;;0.43;0.20;;;8.30;99.90;;;;;;4988716;28;20546;-77
2024/03/02 04:05:51;;;;;;;1.35;0.30;;;8.30;99.90;;;;;;4975985;28;20661;-76
2024/03/02 04:08:16;;;;;;;0.40;0.30;;;8.30;99.90;;;;;;4968622;28;20042;-77
2024/03/02 04:10:42;;;;;;;1.02;0.30;;;8.30;99.90;;;;;;4968455;28;20514;-77
2024/03/02 04:13:09;;;;;;;1.38;0.50;;;8.30;99.90;;;;;;4968895;28;20042;-77
2024/03/02 04:15:35;;;;;;;1.00;0.57;;;8.30;99.90;;;;;;4967450;28;20030;-77
2024/03/02 04:18:00;;;;;;;0.35;0.30;;;8.30;99.90;;;;;;4951069;28;20019;-77
2024/03/02 04:20:26;;;;;;;0.88;0.30;;;8.30;99.90;;;;;;4968306;28;20026;-77
2024/03/02 04:22:52;;;;;;;0.80;0.30;;;8.30;99.90;;;;;;4968416;28;20493;-78
2024/03/02 04:25:17;;;;;;;0.60;0.40;;;8.30;99.90;;;;;;4968064;28;20560;-78
2024/03/02 04:27:43;;;;;;;1.42;0.28;;;8.20;99.90;;;;;;4968614;28;20428;-77
2024/03/02 04:30:09;;;;;;;1.75;0.45;;;8.20;99.90;;;;;;4968048;28;20033;-77
2024/03/02 04:32:36;;;;;;;0.95;0.30;;;8.20;99.90;;;;;;4967650;28;20069;-78
2024/03/02 04:35:02;;;;;;;0.82;0.40;;;8.20;99.90;;;;;;4962128;28;20031;-77
2024/03/02 04:37:27;;;;;;;0.47;0.47;;;8.20;99.90;;;;;;4968503;28;20492;-78
2024/03/02 04:39:53;;;;;;;0.60;0.25;;;8.20;99.90;;;;;;4967897;28;20031;-77
2024/03/02 04:42:19;;;;;;;0.52;0.30;;;8.10;99.90;;;;;;4968274;28;20027;-78
2024/03/02 04:44:44;;;;;;;1.48;0.50;;;8.10;99.90;;;;;;4951011;28;20039;-77
2024/03/02 04:47:10;;;;;;;0.95;0.20;;;8.20;99.90;;;;;;4968220;28;20610;-77
2024/03/02 04:49:36;;;;;;;0.90;0.30;;;8.10;99.90;;;;;;4968151;28;20549;-77
2024/03/02 04:52:01;;;;;;;0.30;0.20;;;8.10;99.90;;;;;;4968716;28;20114;-77
2024/03/02 04:54:27;;;;;;;0.80;0.38;;;8.10;99.90;;;;;;4967660;28;20026;-77
2024/03/02 04:56:53;;;;;;;1.48;0.30;;;8.00;99.90;;;;;;4968320;28;20038;-77
2024/03/02 04:59:19;;;;;;;1.23;0.22;;;8.00;99.90;;;;;;4967581;28;20492;-77
2024/03/02 05:01:46;;;;;;;2.53;0.40;;;8.00;99.90;;;;;;4964092;28;20026;-77
2024/03/02 05:04:11;;;;;;;0.50;0.20;;;8.00;99.90;;;;;;4974963;28;20507;-77
2024/03/02 05:06:41;;;;;;;0.65;0.28;;;8.00;99.90;;;;;;4967860;28;20034;-77
2024/03/02 05:09:08;;;;;;;2.10;0.50;;;7.90;99.90;;;;;;4968177;28;20054;-78
2024/03/02 05:14:06;;;;;;;0.45;0.20;;;7.90;99.90;;;;;;4968162;28;20492;-77
2024/03/02 05:16:36;;;;;;;0.93;0.40;;;7.80;99.90;;;;;;4950546;28;20038;-78
2024/03/02 05:19:02;;;;;;;1.73;0.57;;;7.80;99.90;;;;;;4950525;28;20034;-77
2024/03/02 05:21:28;;;;;;;0.70;0.38;;;7.80;99.90;;;;;;4965318;28;20368;-76
2024/03/02 05:23:53;;;;;;;2.42;0.47;;;7.80;99.90;;;;;;4969047;28;20126;-77
2024/03/02 05:26:19;;;;;;;1.83;0.38;;;7.80;99.90;;;;;;4969297;28;20031;-77
2024/03/02 05:28:44;;;;;;;0.65;0.30;;;7.80;99.90;;;;;;4970262;28;20031;-78
2024/03/02 05:31:11;;;;;;;2.28;0.68;;;7.80;99.90;;;;;;4974154;28;20390;-72
2024/03/02 05:33:40;;;;;;;2.00;0.40;;;7.80;99.90;;;;;;4978395;28;20050;-72
2024/03/02 05:36:06;;;;;;;2.15;0.60;;;7.80;99.90;;;;;;4970884;28;20475;-78
2024/03/02 05:38:34;;;;;;;1.45;0.40;;;7.80;99.90;;;;;;4967777;28;20484;-78
2024/03/02 05:41:00;;;;;;;1.50;0.40;;;7.80;99.90;;;;;;4966869;28;20502;-78
2024/03/02 05:43:25;;;;;;;2.15;0.60;;;7.80;99.90;;;;;;4967743;28;20019;-77
2024/03/02 05:45:51;;;;;;;0.57;0.20;;;7.80;99.90;;;;;;4966918;28;20027;-77
2024/03/02 05:48:17;;;;;;;1.90;0.57;;;7.80;99.90;;;;;;4967307;28;20066;-78
2024/03/02 05:50:42;;;;;;;2.22;0.60;;;7.80;99.90;;;;;;4966732;28;20031;-77
2024/03/02 05:53:08;;;;;;;1.52;0.50;;;7.80;99.90;;;;;;4950021;28;20494;-77
2024/03/02 05:55:34;;;;;;;1.45;0.40;;;7.80;99.90;;;;;;4966681;28;20037;-77
2024/03/02 06:00:31;;;;;;;2.75;0.63;;;7.70;99.90;;;;;;4967104;28;20034;-77
2024/03/02 06:02:57;;;;;;;3.03;0.32;;;7.70;99.90;;;;;;4949955;28;20027;-77
2024/03/02 06:05:22;;;;;;;0.88;0.52;;;7.70;99.90;;;;;;4966972;28;20081;-78
2024/03/02 06:07:48;;;;;;;0.82;0.40;;;7.70;99.90;;;;;;4967681;28;20031;-77
2024/03/02 06:10:14;;;;;;;0.68;0.22;;;7.70;99.90;;;;;;4967474;28;20619;-78
2024/03/02 06:12:40;;;;;;;1.20;0.70;;;7.70;99.90;;;;;;4967736;28;20082;-78
2024/03/02 06:15:06;;;;;;;3.75;0.40;;;7.60;99.90;;;;;;4966679;28;20015;-77
2024/03/02 06:17:32;;;;;;;0.88;0.43;;;7.60;99.90;;;;;;4967199;28;20022;-77
2024/03/02 06:19:57;;;;;;;0.60;0.30;;;7.60;99.90;;;;;;4966492;28;20022;-78
2024/03/02 06:22:24;;;;;;;0.57;0.30;;;7.50;99.90;;;;;;4966706;28;20597;-78
2024/03/02 06:24:51;;;;;;;1.15;0.30;;;7.50;99.90;;;;;;4968916;28;20027;-78
2024/03/02 06:27:16;;;;;;;0.68;0.22;;;7.50;99.90;;;;;;4970681;28;20089;-77
2024/03/02 06:29:42;;;;;;;0.30;0.20;;;7.50;99.90;;;;;;4952675;28;20030;-77
2024/03/02 06:32:08;;;;;;;0.40;0.30;;;7.50;99.90;;;;;;4962571;28;20041;-77
2024/03/02 06:34:33;;;;;;;2.30;0.45;;;7.50;99.90;;;;;;4973240;28;20089;-77
2024/03/02 06:36:59;;;;;;;1.85;0.40;;;7.40;99.90;;;;;;4993351;28;20495;-77
2024/03/02 06:39:25;;;;;;;1.67;0.40;;;7.50;99.90;;;;;;4989790;28;20030;-77
2024/03/02 06:41:51;;;;;;;0.30;0.30;;;7.50;99.90;;;;;;4989166;28;20037;-77
2024/03/02 06:44:17;;;;;;;1.77;0.40;;;7.40;99.90;;;;;;4989934;28;20546;-77
2024/03/02 06:46:43;;;;;;;2.55;0.30;;;7.50;99.90;;;;;;5001825;28;20568;-77
2024/03/02 06:49:10;;;;;;;0.32;0.22;;;7.50;99.90;;;;;;4995130;28;20117;-77
2024/03/02 06:51:35;;;;;;;0.88;0.30;;;7.50;99.90;;;;;;4989607;28;20400;-77
2024/03/02 06:54:01;;;;;;;1.92;0.30;;;7.50;99.90;;;;;;4989551;28;20080;-77
2024/03/02 06:56:27;;;;;;;3.15;0.63;;;7.50;99.90;;;;;;4989149;28;20041;-77
2024/03/02 06:58:52;;;;;;;2.75;0.30;;;7.60;99.90;;;;;;4987983;28;20026;-77
2024/03/02 07:01:20;;;;;;;2.33;0.30;;;7.70;99.90;;;;;;4988549;28;20145;-77
2024/03/02 07:03:46;;;;;;;3.78;0.90;;;7.70;99.90;;;;;;4993359;28;20018;-77
2024/03/02 07:06:11;;;;;;;1.20;0.32;;;7.70;99.90;;;;;;4976500;28;20026;-78
2024/03/02 07:08:37;;;;;;;1.77;0.40;;;7.70;99.90;;;;;;4989711;28;20498;-77
2024/03/02 07:11:03;;;;;;;2.10;0.40;;;7.70;99.90;;;;;;4988993;28;20467;-77
2024/03/02 07:13:28;;;;;;;0.90;0.40;;;7.70;99.90;;;;;;4989460;28;20022;-77
2024/03/02 07:18:31;;;;;;;1.45;0.45;;;7.70;99.90;;;;;;4988938;28;20032;-77
2024/03/02 07:21:01;;;;;;;1.25;0.60;;;7.70;99.90;;;;;;4996931;28;20045;-78
2024/03/02 07:23:27;;;;;;;1.10;0.30;;;7.70;99.90;;;;;;4984656;28;20298;-77
2024/03/02 07:25:56;;;;;;;1.08;0.60;;;7.70;99.90;;;;;;4990273;28;20042;-77
2024/03/02 07:28:23;;;;;;;1.55;0.52;;;7.80;99.90;;;;;;4988759;28;20387;-78
2024/03/02 07:31:04;;;;;;;1.95;0.57;;;7.80;99.90;;;;;;4968926;28;20567;-77
2024/03/02 07:33:33;;;;;;;2.75;0.40;;;7.80;99.90;;;;;;4988554;28;20050;-77
2024/03/02 07:36:00;;;;;;;4.07;0.73;;;7.80;99.90;;;;;;4987308;28;20023;-77
2024/03/02 07:38:27;;;;;;;3.03;0.68;;;7.90;99.90;;;;;;4989439;28;20053;-78
2024/03/02 07:40:53;;;;;;;2.47;1.05;;;7.90;99.90;;;;;;4970745;28;20045;-77
2024/03/02 07:43:19;;;;;;;1.83;0.75;;;7.90;99.90;;;;;;4989518;28;20015;-78
2024/03/02 07:45:45;;;;;;;1.33;0.40;;;8.00;99.90;;;;;;4988508;28;20110;-77
2024/03/02 07:48:11;;;;;;;2.28;0.77;;;8.00;99.90;;;;;;4988871;28;20030;-78
2024/03/02 07:50:42;;;;;;;2.38;0.85;;;8.10;99.90;;;;;;4986363;28;20404;-77
2024/03/02 07:53:08;;;;;;;;;;;8.10;99.90;;;;;;4989265;28;20027;-77
2024/03/02 07:55:33;;;;;;;1.67;0.52;;;8.20;99.90;;;;;;4988267;28;19906;-77
2024/03/02 07:58:00;;;;;;;2.92;0.80;;;8.30;99.90;;;;;;4986086;28;20058;-77
2024/03/02 08:00:27;;;;;;;1.42;0.57;;;8.40;99.90;;;;;;4979042;28;20069;-77
2024/03/02 08:02:53;;;;;;;3.60;0.70;;;8.40;99.90;;;;;;4991998;28;20151;-77
2024/03/02 08:05:19;;;;;;;1.75;0.50;;;8.50;99.90;;;;;;4977566;28;20014;-77
2024/03/02 08:07:46;;;;;;;5.28;0.70;;;8.60;99.90;;;;;;4993575;28;20030;-75
2024/03/02 08:10:12;;;;;;;1.25;0.50;;;8.70;99.90;;;;;;4969818;28;20018;-77
2024/03/02 08:12:38;;;;;;;1.40;0.80;;;8.80;99.90;;;;;;4988020;28;20030;-77
2024/03/02 08:15:04;;;;;;;3.00;0.50;;;8.80;99.90;;;;;;4987775;28;20050;-78
2024/03/02 08:17:31;;;;;;;1.90;0.85;;;8.90;99.90;;;;;;4988077;28;20025;-77
2024/03/02 08:19:57;;;;;;;2.08;0.65;;;9.00;99.90;;;;;;4986949;28;20106;-77
2024/03/02 08:22:25;;;;;;;3.58;0.77;;;9.10;99.90;;;;;;4988078;28;20018;-77
2024/03/02 08:24:51;;;;;;;1.25;0.47;;;9.10;99.90;;;;;;4988055;28;20018;-76
2024/03/02 08:27:17;;;;;;;5.00;0.73;;;9.20;99.90;;;;;;4967204;28;20027;-77
2024/03/02 08:29:42;;;;;;;3.28;0.50;;;9.20;99.90;;;;;;4986769;28;20539;-75
2024/03/02 08:32:08;;;;;;;1.92;0.50;;;9.30;99.90;;;;;;4987158;28;20026;-76
2024/03/02 08:34:35;;;;;;;1.15;0.50;;;9.30;99.90;;;;;;4978439;28;20381;-77
2024/03/02 08:37:02;;;;;;;3.38;0.60;;;9.30;99.90;;;;;;4966408;28;20030;-77
2024/03/02 08:39:28;;;;;;;4.35;0.50;;;9.30;99.90;;;;;;4986867;28;20423;-77
2024/03/02 08:41:54;;;;;;;3.00;0.50;;;9.40;99.90;;;;;;4987641;28;20076;-76
2024/03/02 08:44:20;;;;;;;2.63;0.50;;;9.40;99.90;;;;;;4987729;28;20026;-76
2024/03/02 08:46:46;;;;;;;3.88;0.88;;;9.40;99.90;;;;;;4987183;28;20048;-76
2024/03/02 08:49:12;;;;;;;4.47;0.88;;;9.40;99.90;;;;;;4987577;28;20058;-77
2024/03/02 08:51:38;;;;;;;3.30;0.65;;;9.50;99.90;;;;;;4970087;28;20026;-75
2024/03/02 08:54:04;;;;;;;3.78;0.80;;;9.50;99.90;;;;;;4987590;28;20088;-77
2024/03/02 08:56:30;;;;;;;4.30;0.70;;;9.50;99.90;;;;;;4986573;28;20018;-76
2024/03/02 08:58:56;;;;;;;2.60;0.82;;;9.50;99.90;;;;;;4987364;28;20022;-78
2024/03/02 09:01:21;;;;;;;2.75;0.73;;;9.60;99.90;;;;;;4987317;28;20030;-77
2024/03/02 09:03:49;;;;;;;5.25;1.20;;;9.70;99.90;;;;;;4987634;28;20037;-76
2024/03/02 09:06:16;;;;;;;1.88;0.55;;;9.70;99.90;;;;;;4986367;28;20037;-77
2024/03/02 09:08:43;;;;;;;2.80;0.80;;;9.80;99.90;;;;;;4987275;28;20372;-77
2024/03/02 09:11:09;;;;;;;2.83;0.80;;;9.90;99.90;;;;;;4968081;28;20027;-76
2024/03/02 09:13:35;;;;;;;3.00;0.70;;;9.90;99.90;;;;;;4986263;28;20321;-77
2024/03/02 09:16:01;;;;;;;3.97;1.10;;;9.90;99.90;;;;;;4968610;28;20030;-80
2024/03/02 09:18:27;;;;;;;3.53;1.17;;;10.00;99.90;;;;;;4977450;28;20026;-78
2024/03/02 09:20:52;;;;;;;1.85;0.98;;;10.00;99.90;;;;;;4981817;28;20150;-80
2024/03/02 09:23:18;;;;;;;1.77;0.60;;;10.10;99.90;;;;;;4986988;28;20723;-80
2024/03/02 09:25:44;;;;;;;3.58;0.98;;;10.20;99.90;;;;;;4986763;28;20034;-77
2024/03/02 09:28:10;;;;;;;2.83;0.85;;;10.20;99.90;;;;;;4986937;28;20027;-78
2024/03/02 09:30:35;;;;;;;3.08;0.70;;;10.30;99.90;;;;;;4985310;28;20030;-78
2024/03/02 09:33:01;;;;;;;5.30;0.88;;;10.30;99.90;;;;;;4986352;28;20408;-77
2024/03/02 09:35:27;;;;;;;4.50;1.00;;;10.30;99.90;;;;;;4986556;28;20035;-77
2024/03/02 09:37:52;;;;;;;4.18;0.93;;;10.30;99.90;;;;;;4973161;28;20047;-79
2024/03/02 09:40:22;;;;;;;2.70;0.52;;;10.30;99.90;;;;;;4980853;28;20095;-81
2024/03/02 09:42:52;;;;;;;2.67;0.80;;;10.30;99.90;;;;;;4976664;28;20015;-77
2024/03/02 09:45:23;;;;;;;5.93;0.93;;;10.30;99.90;;;;;;4986142;28;20021;-78
2024/03/02 09:47:49;;;;;;;2.03;0.70;;;10.30;99.90;;;;;;4968044;28;20033;-77
2024/03/02 09:50:15;;;;;;;5.93;0.90;;;10.30;99.90;;;;;;4985651;28;20026;-77
2024/03/02 09:52:42;;;;;;;2.78;0.82;;;10.30;99.90;;;;;;4968463;28;20121;-77
2024/03/02 09:55:08;;;;;;;11.75;1.23;;;10.30;99.90;;;;;;4986514;28;20496;-77
2024/03/02 09:57:35;;;;;;;4.68;1.10;;;10.40;99.90;;;;;;4986874;28;20050;-77
2024/03/02 10:00:01;;;;;;;5.40;1.23;;;10.40;99.90;;;;;;4964881;28;20033;-78
2024/03/02 10:02:27;;;;;;;5.03;0.75;;;10.50;99.90;;;;;;4982641;28;20540;-78
2024/03/02 10:04:52;;;;;;;4.05;0.82;;;10.60;99.90;;;;;;4984340;28;20030;-78
2024/03/02 10:07:19;;;;;;;6.03;0.95;;;10.70;99.90;;;;;;4989432;28;20381;-78
2024/03/02 10:09:47;;;;;;;5.80;1.05;;;10.80;99.90;;;;;;4990480;28;20022;-78
2024/03/02 10:12:16;;;;;;;2.70;1.02;;;10.80;99.90;;;;;;4989979;28;20029;-79
2024/03/02 10:14:42;;;;;;;3.08;0.68;;;10.90;99.90;;;;;;4990318;28;20022;-79
2024/03/02 10:17:09;;;;;;;1.50;0.75;;;10.90;99.90;;;;;;4988797;28;20030;-79
2024/03/02 10:19:36;;;;;;;5.50;0.80;;;11.00;99.90;;;;;;4965870;28;20018;-79
2024/03/02 10:22:05;;;;;;;3.50;0.90;;;11.10;99.90;;;;;;4969969;28;20027;-79
2024/03/02 10:24:41;;;;;;;4.65;1.10;;;11.10;99.90;;;;;;4982085;28;20029;-78
2024/03/02 10:27:15;;;;;;;3.78;0.80;;;11.20;99.90;;;;;;4985393;28;20019;-79
2024/03/02 10:29:41;;;;;;;3.72;0.70;;;11.30;99.90;;;;;;4982427;28;20041;-80
2024/03/02 10:32:11;;;;;;;3.65;0.73;;;11.40;99.90;;;;;;4988875;28;20022;-79
2024/03/02 10:34:38;;;;;;;2.60;0.90;;;11.50;99.90;;;;;;4980665;28;20058;-80
2024/03/02 10:37:05;;;;;;;5.43;1.13;;;11.50;99.90;;;;;;4981315;28;20727;-79
2024/03/02 10:39:31;;;;;;;1.45;0.85;;;11.60;99.90;;;;;;4989552;28;20373;-79
2024/03/02 10:41:58;;;;;;;2.10;0.60;;;11.60;99.90;;;;;;4974861;28;20416;-81
2024/03/02 10:44:26;;;;;;;3.53;0.90;;;11.70;99.90;;;;;;4981984;28;20014;-79
2024/03/02 10:46:53;;;;;;;3.35;1.05;;;11.80;99.90;;;;;;4971507;28;20030;-79
2024/03/02 10:49:22;;;;;;;3.75;0.90;;;11.90;99.90;;;;;;4979799;28;20023;-80
2024/03/02 10:51:48;;;;;;;3.72;0.80;;;11.90;99.90;;;;;;4989053;28;20054;-79
2024/03/02 10:54:14;;;;;;;2.53;0.70;;;12.00;99.90;;;;;;4977060;28;20054;-81
2024/03/02 10:56:41;;;;;;;3.33;0.68;;;12.00;99.90;;;;;;4981220;28;20112;-80
2024/03/02 10:59:22;;;;;;;2.65;0.85;;;12.10;99.90;;;;;;4975744;28;20027;-81
2024/03/02 11:01:48;;;;;;;5.25;1.10;;;12.10;99.90;;;;;;4958346;28;20407;-81
2024/03/02 11:04:18;;;;;;;3.17;1.23;;;12.20;99.90;;;;;;4988824;28;20026;-79
2024/03/02 11:06:51;;;;;;;1.98;0.95;;;12.30;99.90;;;;;;4970247;28;20776;-82
2024/03/02 11:09:25;;;;;;;2.90;0.60;;;12.40;99.90;;;;;;4988879;28;20026;-82
2024/03/02 11:12:09;;;;;;;3.90;0.75;;;12.40;99.90;;;;;;4983878;28;20033;-80
2024/03/02 11:14:40;;;;;;;5.70;1.42;;;12.50;99.90;;;;;;4967457;28;20026;-81
2024/03/02 11:17:06;;;;;;;;;;;12.50;99.90;;;;;;4958395;28;20444;-80
2024/03/02 11:19:32;;;;;;;3.20;1.00;;;12.50;99.90;;;;;;4987559;28;19921;-80
2024/03/02 11:21:58;;;;;;;6.63;0.85;;;12.60;99.90;;;;;;4986866;28;20033;-80
2024/03/02 11:24:24;;;;;;;3.47;0.77;;;12.70;99.90;;;;;;4980546;28;20179;-80
2024/03/02 11:26:53;;;;;;;2.83;0.60;;;12.80;99.90;;;;;;4976145;28;20153;-79
2024/03/02 11:29:40;;;;;;;2.05;0.80;;;12.80;99.90;;;;;;4980882;28;20085;-81
2024/03/02 11:32:16;;;;;;;3.67;1.10;;;13.00;99.90;;;;;;4976471;28;20030;-79
2024/03/02 11:34:49;;;;;;;4.55;0.82;;;13.00;99.90;;;;;;4981513;28;20194;-79
2024/03/02 11:37:20;;;;;;;1.95;0.80;;;12.90;99.90;;;;;;4982894;28;20101;-79
2024/03/02 11:39:46;;;;;;;;;;;13.00;99.90;;;;;;4979687;28;20141;-81
2024/03/02 11:42:16;;;;;;;1.65;0.52;;;13.10;99.90;;;;;;4970392;28;19906;-82
2024/03/02 11:44:47;;;;;;;2.45;0.70;;;13.10;99.90;;;;;;4986958;28;20015;-81
2024/03/02 11:47:16;;;;;;;3.08;0.80;;;13.20;99.90;;;;;;4980585;28;20146;-81
2024/03/02 11:49:49;;;;;;;2.70;0.68;;;13.20;99.90;;;;;;4987312;28;20109;-80
2024/03/02 11:52:16;;;;;;;5.22;1.05;;;13.30;99.90;;;;;;4980220;28;20022;-80
2024/03/02 11:54:46;;;;;;;2.47;0.75;;;13.40;99.80;;;;;;4987829;28;20392;-80
2024/03/02 11:57:14;;;;;;;3.00;0.57;;;13.40;99.20;;;;;;4974403;28;20035;-80
2024/03/02 11:59:40;;;;;;;3.00;1.08;;;13.40;99.00;;;;;;4985600;28;20085;-81
2024/03/02 12:02:06;;;;;;;4.57;1.00;;;13.40;98.30;;;;;;4987832;28;20053;-85
2024/03/02 12:04:32;;;;;;;3.05;1.00;;;13.40;98.40;;;;;;4981752;28;20050;-82
2024/03/02 12:07:01;;;;;;;1.95;0.75;;;13.40;98.10;;;;;;4981079;28;20027;-81
2024/03/02 12:09:27;;;;;;;3.95;1.20;;;13.50;97.90;;;;;;4982535;28;20033;-83
2024/03/02 12:12:07;;;;;;;1.38;0.50;;;13.60;98.20;;;;;;4987543;28;20027;-82
2024/03/02 12:14:34;;;;;;;3.50;0.95;;;13.70;97.30;;;;;;4968473;28;20380;-83
2024/03/02 12:16:59;;;;;;;3.60;0.90;;;13.70;96.70;;;;;;4966488;28;20482;-85
2024/03/02 12:19:26;;;;;;;3.90;0.95;;;13.70;96.40;;;;;;4969381;28;20027;-81
2024/03/02 12:21:53;;;;;;;3.40;0.60;;;13.80;96.80;;;;;;4986344;28;20048;-82
2024/03/02 12:24:20;;;;;;;0.95;0.60;;;13.90;96.90;;;;;;4987168;28;20050;-82
2024/03/02 12:26:47;;;;;;;3.92;0.95;;;14.00;96.40;;;;;;4988926;28;20492;-80
2024/03/02 12:29:15;;;;;;;2.75;0.73;;;14.00;96.00;;;;;;4980229;28;20501;-81
2024/03/02 12:31:41;;;;;;;3.13;0.90;;;13.90;95.70;;;;;;4979832;28;20555;-82
2024/03/02 12:34:08;;;;;;;3.15;0.80;;;13.90;95.40;;;;;;4989136;28;20046;-82
2024/03/02 12:36:41;;;;;;;2.90;0.80;;;13.90;95.40;;;;;;4990584;28;20026;-82
2024/03/02 12:39:08;;;;;;;2.15;0.70;;;13.90;95.90;;;;;;4972659;28;20097;-82
2024/03/02 12:41:39;;;;;;;3.53;0.90;;;13.90;95.20;;;;;;4973839;28;20135;-81
2024/03/02 12:44:05;;;;;;;4.78;1.00;;;13.90;95.10;;;;;;4975684;28;20518;-82
2024/03/02 12:46:32;;;;;;;1.88;0.80;;;13.90;95.20;;;;;;4987014;28;20019;-83
2024/03/02 12:49:07;;;;;;;5.13;0.90;;;13.90;94.70;;;;;;4983682;28;20051;-83
2024/03/02 12:51:33;;;;;;;2.50;0.82;;;13.80;94.80;;;;;;4969626;28;20034;-82
2024/03/02 12:53:59;;;;;;;2.58;0.77;;;13.90;95.00;;;;;;4989296;28;20019;-79
2024/03/02 12:56:25;;;;;;;3.50;1.02;;;14.00;95.20;;;;;;4985772;28;20120;-81
2024/03/02 12:58:58;;;;;;;2.22;0.70;;;14.00;94.70;;;;;;4984151;28;20122;-81
2024/03/02 13:01:24;;;;;;;2.60;1.20;;;14.10;94.20;;;;;;4988761;28;20113;-80